sensor_id;sensor_type;location;lat;lon;timestamp;P1;durP1;ratioP1;P2;durP2;ratioP2
32611;SDS011;19030;49.478;8.986;2022-11-14T00:01:17;14.35;;;8.30;;
32611;SDS011;19030;49.478;8.986;2022-11-14T00:03:36;10.95;;;6.30;;
32611;SDS011;19030;49.478;8.986;2022-11-14T00:05:55;12.65;;;7.10;;
32611;SDS011;19030;49.478;8.986;2022-11-14T00:08:16;11.73;;;6.30;;
32611;SDS011;19030;49.478;8.986;2022-11-14T00:10:37;10.93;;;6.40;;
32611;SDS011;19030;49.478;8.986;2022-11-14T00:12:56;12.40;;;7.15;;
32611;SDS011;19030;49.478;8.986;2022-11-14T00:15:15;13.02;;;6.60;;
32611;SDS011;19030;49.478;8.986;2022-11-14T00:17:34;12.73;;;6.63;;
32611;SDS011;19030;49.478;8.986;2022-11-14T00:19:54;16.95;;;7.20;;
32611;SDS011;19030;49.478;8.986;2022-11-14T00:22:13;11.65;;;6.30;;
32611;SDS011;19030;49.478;8.986;2022-11-14T00:24:32;13.45;;;7.07;;
32611;SDS011;19030;49.478;8.986;2022-11-14T00:26:51;12.13;;;7.53;;
32611;SDS011;19030;49.478;8.986;2022-11-14T00:29:11;12.95;;;7.57;;
32611;SDS011;19030;49.478;8.986;2022-11-14T00:31:30;12.85;;;7.25;;
32611;SDS011;19030;49.478;8.986;2022-11-14T00:33:50;13.73;;;7.68;;
32611;SDS011;19030;49.478;8.986;2022-11-14T00:36:09;13.80;;;7.47;;
32611;SDS011;19030;49.478;8.986;2022-11-14T00:38:28;13.20;;;7.57;;
32611;SDS011;19030;49.478;8.986;2022-11-14T00:40:47;13.25;;;7.45;;
32611;SDS011;19030;49.478;8.986;2022-11-14T00:43:06;15.00;;;7.32;;
32611;SDS011;19030;49.478;8.986;2022-11-14T00:45:25;13.10;;;7.22;;
32611;SDS011;19030;49.478;8.986;2022-11-14T00:47:44;14.85;;;7.60;;
32611;SDS011;19030;49.478;8.986;2022-11-14T00:50:03;15.02;;;7.30;;
32611;SDS011;19030;49.478;8.986;2022-11-14T00:52:23;14.73;;;8.35;;
32611;SDS011;19030;49.478;8.986;2022-11-14T00:54:42;12.88;;;7.60;;
32611;SDS011;19030;49.478;8.986;2022-11-14T00:57:01;14.02;;;7.20;;
32611;SDS011;19030;49.478;8.986;2022-11-14T00:59:20;13.18;;;7.22;;
32611;SDS011;19030;49.478;8.986;2022-11-14T01:01:39;12.40;;;7.43;;
32611;SDS011;19030;49.478;8.986;2022-11-14T01:03:59;15.77;;;9.38;;
32611;SDS011;19030;49.478;8.986;2022-11-14T01:06:18;12.52;;;7.10;;
32611;SDS011;19030;49.478;8.986;2022-11-14T01:08:38;13.48;;;6.68;;
32611;SDS011;19030;49.478;8.986;2022-11-14T01:10:57;13.80;;;7.60;;
32611;SDS011;19030;49.478;8.986;2022-11-14T01:13:16;11.27;;;6.50;;
32611;SDS011;19030;49.478;8.986;2022-11-14T01:15:40;13.52;;;7.43;;
32611;SDS011;19030;49.478;8.986;2022-11-14T01:20:23;13.82;;;7.50;;
32611;SDS011;19030;49.478;8.986;2022-11-14T01:22:42;13.25;;;7.47;;
32611;SDS011;19030;49.478;8.986;2022-11-14T01:25:01;12.00;;;6.65;;
32611;SDS011;19030;49.478;8.986;2022-11-14T01:27:20;13.52;;;7.00;;
32611;SDS011;19030;49.478;8.986;2022-11-14T01:29:39;12.77;;;7.13;;
32611;SDS011;19030;49.478;8.986;2022-11-14T01:31:58;13.90;;;6.65;;
32611;SDS011;19030;49.478;8.986;2022-11-14T01:34:17;13.27;;;6.95;;
32611;SDS011;19030;49.478;8.986;2022-11-14T01:36:36;12.45;;;6.72;;
32611;SDS011;19030;49.478;8.986;2022-11-14T01:38:55;14.65;;;7.32;;
32611;SDS011;19030;49.478;8.986;2022-11-14T01:41:14;13.00;;;7.35;;
32611;SDS011;19030;49.478;8.986;2022-11-14T01:43:38;11.48;;;6.90;;
32611;SDS011;19030;49.478;8.986;2022-11-14T01:45:59;12.95;;;7.53;;
32611;SDS011;19030;49.478;8.986;2022-11-14T01:51:11;13.20;;;7.20;;
32611;SDS011;19030;49.478;8.986;2022-11-14T01:53:46;13.85;;;7.32;;
32611;SDS011;19030;49.478;8.986;2022-11-14T01:56:08;17.08;;;8.20;;
32611;SDS011;19030;49.478;8.986;2022-11-14T01:58:31;16.50;;;8.63;;
32611;SDS011;19030;49.478;8.986;2022-11-14T02:00:53;15.07;;;8.65;;
32611;SDS011;19030;49.478;8.986;2022-11-14T02:03:13;13.73;;;7.65;;
32611;SDS011;19030;49.478;8.986;2022-11-14T02:05:33;15.18;;;8.07;;
32611;SDS011;19030;49.478;8.986;2022-11-14T02:07:53;14.90;;;8.82;;
32611;SDS011;19030;49.478;8.986;2022-11-14T02:10:18;15.43;;;8.15;;
32611;SDS011;19030;49.478;8.986;2022-11-14T02:12:38;12.48;;;8.13;;
32611;SDS011;19030;49.478;8.986;2022-11-14T02:14:57;16.20;;;8.88;;
32611;SDS011;19030;49.478;8.986;2022-11-14T02:17:17;14.93;;;9.02;;
32611;SDS011;19030;49.478;8.986;2022-11-14T02:19:41;15.90;;;8.52;;
32611;SDS011;19030;49.478;8.986;2022-11-14T02:22:06;15.68;;;8.32;;
32611;SDS011;19030;49.478;8.986;2022-11-14T02:24:25;15.70;;;9.57;;
32611;SDS011;19030;49.478;8.986;2022-11-14T02:26:43;14.30;;;7.97;;
32611;SDS011;19030;49.478;8.986;2022-11-14T02:29:03;14.75;;;8.57;;
32611;SDS011;19030;49.478;8.986;2022-11-14T02:31:23;13.40;;;7.50;;
32611;SDS011;19030;49.478;8.986;2022-11-14T02:33:42;15.13;;;8.73;;
32611;SDS011;19030;49.478;8.986;2022-11-14T02:36:01;14.02;;;8.57;;
32611;SDS011;19030;49.478;8.986;2022-11-14T02:38:20;14.73;;;8.57;;
32611;SDS011;19030;49.478;8.986;2022-11-14T02:40:39;14.32;;;8.23;;
32611;SDS011;19030;49.478;8.986;2022-11-14T02:42:58;14.80;;;8.07;;
32611;SDS011;19030;49.478;8.986;2022-11-14T02:45:17;16.65;;;8.98;;
32611;SDS011;19030;49.478;8.986;2022-11-14T02:47:38;15.52;;;8.55;;
32611;SDS011;19030;49.478;8.986;2022-11-14T02:49:57;14.88;;;9.05;;
32611;SDS011;19030;49.478;8.986;2022-11-14T02:52:16;15.55;;;9.30;;
32611;SDS011;19030;49.478;8.986;2022-11-14T02:54:35;16.42;;;8.85;;
32611;SDS011;19030;49.478;8.986;2022-11-14T02:56:54;15.52;;;9.38;;
32611;SDS011;19030;49.478;8.986;2022-11-14T02:59:13;14.93;;;8.55;;
32611;SDS011;19030;49.478;8.986;2022-11-14T03:01:32;18.88;;;10.48;;
32611;SDS011;19030;49.478;8.986;2022-11-14T03:03:51;15.77;;;9.82;;
32611;SDS011;19030;49.478;8.986;2022-11-14T03:06:10;19.30;;;9.40;;
32611;SDS011;19030;49.478;8.986;2022-11-14T03:08:29;16.08;;;9.10;;
32611;SDS011;19030;49.478;8.986;2022-11-14T03:10:48;16.10;;;8.40;;
32611;SDS011;19030;49.478;8.986;2022-11-14T03:13:07;16.00;;;9.02;;
32611;SDS011;19030;49.478;8.986;2022-11-14T03:15:26;14.40;;;9.15;;
32611;SDS011;19030;49.478;8.986;2022-11-14T03:17:45;19.02;;;9.18;;
32611;SDS011;19030;49.478;8.986;2022-11-14T03:20:05;15.57;;;9.27;;
32611;SDS011;19030;49.478;8.986;2022-11-14T03:22:25;17.50;;;9.73;;
32611;SDS011;19030;49.478;8.986;2022-11-14T03:24:44;17.63;;;9.25;;
32611;SDS011;19030;49.478;8.986;2022-11-14T03:27:03;17.40;;;8.80;;
32611;SDS011;19030;49.478;8.986;2022-11-14T03:29:22;15.82;;;9.55;;
32611;SDS011;19030;49.478;8.986;2022-11-14T03:31:41;14.63;;;9.10;;
32611;SDS011;19030;49.478;8.986;2022-11-14T03:34:00;17.08;;;9.65;;
32611;SDS011;19030;49.478;8.986;2022-11-14T03:36:19;17.52;;;9.93;;
32611;SDS011;19030;49.478;8.986;2022-11-14T03:38:39;18.42;;;10.43;;
32611;SDS011;19030;49.478;8.986;2022-11-14T03:40:58;20.67;;;12.68;;
32611;SDS011;19030;49.478;8.986;2022-11-14T03:43:18;19.65;;;11.55;;
32611;SDS011;19030;49.478;8.986;2022-11-14T03:45:38;17.30;;;9.80;;
32611;SDS011;19030;49.478;8.986;2022-11-14T03:47:57;16.13;;;10.02;;
32611;SDS011;19030;49.478;8.986;2022-11-14T03:50:16;15.57;;;9.70;;
32611;SDS011;19030;49.478;8.986;2022-11-14T03:52:35;22.25;;;10.98;;
32611;SDS011;19030;49.478;8.986;2022-11-14T03:54:54;17.02;;;10.00;;
32611;SDS011;19030;49.478;8.986;2022-11-14T03:57:13;17.00;;;10.05;;
32611;SDS011;19030;49.478;8.986;2022-11-14T03:59:32;17.73;;;10.23;;
32611;SDS011;19030;49.478;8.986;2022-11-14T04:01:51;18.65;;;10.90;;
32611;SDS011;19030;49.478;8.986;2022-11-14T04:04:11;17.77;;;9.68;;
32611;SDS011;19030;49.478;8.986;2022-11-14T04:06:31;15.05;;;9.48;;
32611;SDS011;19030;49.478;8.986;2022-11-14T04:08:49;16.17;;;9.88;;
32611;SDS011;19030;49.478;8.986;2022-11-14T04:11:09;17.75;;;10.85;;
32611;SDS011;19030;49.478;8.986;2022-11-14T04:13:28;17.15;;;10.38;;
32611;SDS011;19030;49.478;8.986;2022-11-14T04:15:53;18.95;;;10.63;;
32611;SDS011;19030;49.478;8.986;2022-11-14T04:18:13;16.40;;;10.35;;
32611;SDS011;19030;49.478;8.986;2022-11-14T04:20:32;16.40;;;9.85;;
32611;SDS011;19030;49.478;8.986;2022-11-14T04:22:51;18.55;;;10.45;;
32611;SDS011;19030;49.478;8.986;2022-11-14T04:25:10;16.92;;;9.50;;
32611;SDS011;19030;49.478;8.986;2022-11-14T04:27:29;17.70;;;10.68;;
32611;SDS011;19030;49.478;8.986;2022-11-14T04:29:48;17.67;;;10.73;;
32611;SDS011;19030;49.478;8.986;2022-11-14T04:32:07;15.48;;;9.90;;
32611;SDS011;19030;49.478;8.986;2022-11-14T04:34:26;16.25;;;9.25;;
32611;SDS011;19030;49.478;8.986;2022-11-14T04:36:45;19.50;;;11.82;;
32611;SDS011;19030;49.478;8.986;2022-11-14T04:39:05;19.95;;;11.10;;
32611;SDS011;19030;49.478;8.986;2022-11-14T04:41:24;22.95;;;13.18;;
32611;SDS011;19030;49.478;8.986;2022-11-14T04:43:43;34.78;;;20.70;;
32611;SDS011;19030;49.478;8.986;2022-11-14T04:46:02;34.30;;;18.88;;
32611;SDS011;19030;49.478;8.986;2022-11-14T04:48:21;31.80;;;19.60;;
32611;SDS011;19030;49.478;8.986;2022-11-14T04:50:40;32.40;;;17.67;;
32611;SDS011;19030;49.478;8.986;2022-11-14T04:52:59;30.33;;;18.15;;
32611;SDS011;19030;49.478;8.986;2022-11-14T04:55:18;37.53;;;20.70;;
32611;SDS011;19030;49.478;8.986;2022-11-14T04:57:37;33.67;;;19.83;;
32611;SDS011;19030;49.478;8.986;2022-11-14T04:59:56;40.05;;;22.55;;
32611;SDS011;19030;49.478;8.986;2022-11-14T05:02:15;38.30;;;21.33;;
32611;SDS011;19030;49.478;8.986;2022-11-14T05:04:34;37.60;;;21.92;;
32611;SDS011;19030;49.478;8.986;2022-11-14T05:06:53;36.30;;;20.30;;
32611;SDS011;19030;49.478;8.986;2022-11-14T05:09:12;44.92;;;23.80;;
32611;SDS011;19030;49.478;8.986;2022-11-14T05:11:31;42.33;;;22.70;;
32611;SDS011;19030;49.478;8.986;2022-11-14T05:13:50;34.00;;;21.67;;
32611;SDS011;19030;49.478;8.986;2022-11-14T05:16:09;36.45;;;21.83;;
32611;SDS011;19030;49.478;8.986;2022-11-14T05:18:28;33.92;;;20.10;;
32611;SDS011;19030;49.478;8.986;2022-11-14T05:20:47;35.10;;;21.77;;
32611;SDS011;19030;49.478;8.986;2022-11-14T05:23:06;35.05;;;20.50;;
32611;SDS011;19030;49.478;8.986;2022-11-14T05:25:30;34.53;;;21.10;;
32611;SDS011;19030;49.478;8.986;2022-11-14T05:27:49;37.67;;;22.35;;
32611;SDS011;19030;49.478;8.986;2022-11-14T05:30:08;33.83;;;21.20;;
32611;SDS011;19030;49.478;8.986;2022-11-14T05:32:28;33.40;;;20.80;;
32611;SDS011;19030;49.478;8.986;2022-11-14T05:34:47;32.55;;;19.45;;
32611;SDS011;19030;49.478;8.986;2022-11-14T05:37:06;33.88;;;19.55;;
32611;SDS011;19030;49.478;8.986;2022-11-14T05:39:26;37.05;;;20.77;;
32611;SDS011;19030;49.478;8.986;2022-11-14T05:41:45;30.33;;;18.58;;
32611;SDS011;19030;49.478;8.986;2022-11-14T05:44:04;30.08;;;18.30;;
32611;SDS011;19030;49.478;8.986;2022-11-14T05:46:23;30.52;;;18.73;;
32611;SDS011;19030;49.478;8.986;2022-11-14T05:48:42;35.55;;;20.45;;
32611;SDS011;19030;49.478;8.986;2022-11-14T05:51:02;34.28;;;20.45;;
32611;SDS011;19030;49.478;8.986;2022-11-14T05:53:22;30.88;;;18.30;;
32611;SDS011;19030;49.478;8.986;2022-11-14T05:55:41;31.65;;;19.17;;
32611;SDS011;19030;49.478;8.986;2022-11-14T05:58:00;30.27;;;17.27;;
32611;SDS011;19030;49.478;8.986;2022-11-14T06:00:19;31.58;;;18.88;;
32611;SDS011;19030;49.478;8.986;2022-11-14T06:02:38;31.00;;;18.20;;
32611;SDS011;19030;49.478;8.986;2022-11-14T06:05:01;35.13;;;16.77;;
32611;SDS011;19030;49.478;8.986;2022-11-14T06:07:20;32.00;;;19.70;;
32611;SDS011;19030;49.478;8.986;2022-11-14T06:09:39;34.67;;;19.25;;
32611;SDS011;19030;49.478;8.986;2022-11-14T06:11:58;29.65;;;18.00;;
32611;SDS011;19030;49.478;8.986;2022-11-14T06:14:17;31.65;;;18.05;;
32611;SDS011;19030;49.478;8.986;2022-11-14T06:16:36;31.80;;;17.10;;
32611;SDS011;19030;49.478;8.986;2022-11-14T06:18:55;33.17;;;18.95;;
32611;SDS011;19030;49.478;8.986;2022-11-14T06:21:15;30.92;;;18.02;;
32611;SDS011;19030;49.478;8.986;2022-11-14T06:23:36;31.25;;;17.65;;
32611;SDS011;19030;49.478;8.986;2022-11-14T06:26:03;29.98;;;17.25;;
32611;SDS011;19030;49.478;8.986;2022-11-14T06:28:23;34.90;;;18.73;;
32611;SDS011;19030;49.478;8.986;2022-11-14T06:30:42;32.20;;;18.40;;
32611;SDS011;19030;49.478;8.986;2022-11-14T06:33:01;31.23;;;18.17;;
32611;SDS011;19030;49.478;8.986;2022-11-14T06:35:20;31.90;;;19.02;;
32611;SDS011;19030;49.478;8.986;2022-11-14T06:37:39;30.92;;;19.10;;
32611;SDS011;19030;49.478;8.986;2022-11-14T06:39:58;30.75;;;19.35;;
32611;SDS011;19030;49.478;8.986;2022-11-14T06:42:17;33.08;;;17.67;;
32611;SDS011;19030;49.478;8.986;2022-11-14T06:44:36;32.20;;;18.58;;
32611;SDS011;19030;49.478;8.986;2022-11-14T06:46:55;32.95;;;19.50;;
32611;SDS011;19030;49.478;8.986;2022-11-14T06:49:15;30.88;;;17.90;;
32611;SDS011;19030;49.478;8.986;2022-11-14T06:51:34;29.63;;;17.88;;
32611;SDS011;19030;49.478;8.986;2022-11-14T06:53:53;28.92;;;16.27;;
32611;SDS011;19030;49.478;8.986;2022-11-14T06:56:13;34.30;;;18.80;;
32611;SDS011;19030;49.478;8.986;2022-11-14T06:58:35;32.05;;;17.63;;
32611;SDS011;19030;49.478;8.986;2022-11-14T07:01:05;27.73;;;16.50;;
32611;SDS011;19030;49.478;8.986;2022-11-14T07:03:29;30.80;;;17.67;;
32611;SDS011;19030;49.478;8.986;2022-11-14T07:05:48;31.23;;;17.48;;
32611;SDS011;19030;49.478;8.986;2022-11-14T07:08:07;27.55;;;16.65;;
32611;SDS011;19030;49.478;8.986;2022-11-14T07:10:26;30.77;;;17.05;;
32611;SDS011;19030;49.478;8.986;2022-11-14T07:12:45;28.67;;;16.02;;
32611;SDS011;19030;49.478;8.986;2022-11-14T07:15:05;27.15;;;16.02;;
32611;SDS011;19030;49.478;8.986;2022-11-14T07:17:24;100.47;;;53.22;;
32611;SDS011;19030;49.478;8.986;2022-11-14T07:19:44;40.92;;;22.60;;
32611;SDS011;19030;49.478;8.986;2022-11-14T07:22:03;29.80;;;16.60;;
32611;SDS011;19030;49.478;8.986;2022-11-14T07:24:22;32.97;;;18.80;;
32611;SDS011;19030;49.478;8.986;2022-11-14T07:26:41;32.22;;;16.02;;
32611;SDS011;19030;49.478;8.986;2022-11-14T07:29:00;27.50;;;16.38;;
32611;SDS011;19030;49.478;8.986;2022-11-14T07:31:19;32.67;;;19.02;;
32611;SDS011;19030;49.478;8.986;2022-11-14T07:33:38;29.42;;;16.50;;
32611;SDS011;19030;49.478;8.986;2022-11-14T07:35:58;28.90;;;15.95;;
32611;SDS011;19030;49.478;8.986;2022-11-14T07:38:18;28.80;;;15.70;;
32611;SDS011;19030;49.478;8.986;2022-11-14T07:40:37;27.45;;;16.92;;
32611;SDS011;19030;49.478;8.986;2022-11-14T07:43:00;26.40;;;15.18;;
32611;SDS011;19030;49.478;8.986;2022-11-14T07:45:19;26.55;;;15.63;;
32611;SDS011;19030;49.478;8.986;2022-11-14T07:47:38;26.48;;;15.95;;
32611;SDS011;19030;49.478;8.986;2022-11-14T07:49:57;27.35;;;16.25;;
32611;SDS011;19030;49.478;8.986;2022-11-14T07:52:16;25.50;;;16.58;;
32611;SDS011;19030;49.478;8.986;2022-11-14T07:54:35;27.67;;;16.20;;
32611;SDS011;19030;49.478;8.986;2022-11-14T07:56:55;23.00;;;14.43;;
32611;SDS011;19030;49.478;8.986;2022-11-14T07:59:14;26.73;;;15.13;;
32611;SDS011;19030;49.478;8.986;2022-11-14T08:01:33;24.30;;;14.65;;
32611;SDS011;19030;49.478;8.986;2022-11-14T08:03:52;27.27;;;14.77;;
32611;SDS011;19030;49.478;8.986;2022-11-14T08:06:12;24.30;;;15.15;;
32611;SDS011;19030;49.478;8.986;2022-11-14T08:08:33;25.52;;;14.07;;
32611;SDS011;19030;49.478;8.986;2022-11-14T08:10:56;22.25;;;14.35;;
32611;SDS011;19030;49.478;8.986;2022-11-14T08:13:16;21.13;;;13.20;;
32611;SDS011;19030;49.478;8.986;2022-11-14T08:15:35;21.70;;;13.48;;
32611;SDS011;19030;49.478;8.986;2022-11-14T08:17:57;26.05;;;14.48;;
32611;SDS011;19030;49.478;8.986;2022-11-14T08:20:17;26.23;;;13.93;;
32611;SDS011;19030;49.478;8.986;2022-11-14T08:22:36;21.13;;;13.07;;
32611;SDS011;19030;49.478;8.986;2022-11-14T08:24:55;21.92;;;13.32;;
32611;SDS011;19030;49.478;8.986;2022-11-14T08:27:15;25.60;;;13.60;;
32611;SDS011;19030;49.478;8.986;2022-11-14T08:29:34;22.60;;;14.07;;
32611;SDS011;19030;49.478;8.986;2022-11-14T08:31:53;23.60;;;13.52;;
32611;SDS011;19030;49.478;8.986;2022-11-14T08:34:12;21.80;;;13.10;;
32611;SDS011;19030;49.478;8.986;2022-11-14T08:36:31;18.08;;;11.18;;
32611;SDS011;19030;49.478;8.986;2022-11-14T08:38:50;19.23;;;12.07;;
32611;SDS011;19030;49.478;8.986;2022-11-14T08:41:09;28.20;;;15.55;;
32611;SDS011;19030;49.478;8.986;2022-11-14T08:43:30;18.05;;;11.80;;
32611;SDS011;19030;49.478;8.986;2022-11-14T08:45:49;19.05;;;11.50;;
32611;SDS011;19030;49.478;8.986;2022-11-14T08:48:08;19.58;;;11.68;;
32611;SDS011;19030;49.478;8.986;2022-11-14T08:50:28;18.27;;;12.07;;
32611;SDS011;19030;49.478;8.986;2022-11-14T08:52:50;18.38;;;12.00;;
32611;SDS011;19030;49.478;8.986;2022-11-14T08:55:09;16.95;;;11.45;;
32611;SDS011;19030;49.478;8.986;2022-11-14T08:57:28;16.05;;;10.77;;
32611;SDS011;19030;49.478;8.986;2022-11-14T08:59:47;14.57;;;10.50;;
32611;SDS011;19030;49.478;8.986;2022-11-14T09:02:10;15.00;;;10.63;;
32611;SDS011;19030;49.478;8.986;2022-11-14T09:04:30;16.42;;;10.90;;
32611;SDS011;19030;49.478;8.986;2022-11-14T09:06:49;16.88;;;11.07;;
32611;SDS011;19030;49.478;8.986;2022-11-14T09:09:09;16.45;;;10.82;;
32611;SDS011;19030;49.478;8.986;2022-11-14T09:11:28;17.00;;;11.82;;
32611;SDS011;19030;49.478;8.986;2022-11-14T09:13:47;15.27;;;10.80;;
32611;SDS011;19030;49.478;8.986;2022-11-14T09:16:06;18.60;;;11.27;;
32611;SDS011;19030;49.478;8.986;2022-11-14T09:18:26;17.77;;;11.40;;
32611;SDS011;19030;49.478;8.986;2022-11-14T09:20:45;14.90;;;9.88;;
32611;SDS011;19030;49.478;8.986;2022-11-14T09:23:04;15.18;;;9.82;;
32611;SDS011;19030;49.478;8.986;2022-11-14T09:25:23;17.42;;;10.65;;
32611;SDS011;19030;49.478;8.986;2022-11-14T09:27:44;14.60;;;9.75;;
32611;SDS011;19030;49.478;8.986;2022-11-14T09:30:03;14.90;;;10.60;;
32611;SDS011;19030;49.478;8.986;2022-11-14T09:32:23;14.75;;;9.00;;
32611;SDS011;19030;49.478;8.986;2022-11-14T09:34:42;13.95;;;9.32;;
32611;SDS011;19030;49.478;8.986;2022-11-14T09:37:03;12.82;;;8.23;;
32611;SDS011;19030;49.478;8.986;2022-11-14T09:39:22;14.77;;;9.32;;
32611;SDS011;19030;49.478;8.986;2022-11-14T09:44:41;12.50;;;8.40;;
32611;SDS011;19030;49.478;8.986;2022-11-14T09:47:15;11.55;;;7.57;;
32611;SDS011;19030;49.478;8.986;2022-11-14T09:49:42;12.07;;;8.40;;
32611;SDS011;19030;49.478;8.986;2022-11-14T09:54:46;12.55;;;8.27;;
32611;SDS011;19030;49.478;8.986;2022-11-14T09:57:12;11.70;;;7.78;;
32611;SDS011;19030;49.478;8.986;2022-11-14T09:59:36;10.98;;;7.60;;
32611;SDS011;19030;49.478;8.986;2022-11-14T10:02:13;13.70;;;8.00;;
32611;SDS011;19030;49.478;8.986;2022-11-14T10:04:53;11.15;;;7.32;;
32611;SDS011;19030;49.478;8.986;2022-11-14T10:07:47;10.88;;;6.97;;
32611;SDS011;19030;49.478;8.986;2022-11-14T10:10:27;10.45;;;6.75;;
32611;SDS011;19030;49.478;8.986;2022-11-14T10:15:57;12.90;;;7.35;;
32611;SDS011;19030;49.478;8.986;2022-11-14T10:18:28;11.40;;;6.82;;
32611;SDS011;19030;49.478;8.986;2022-11-14T10:21:01;11.02;;;6.68;;
32611;SDS011;19030;49.478;8.986;2022-11-14T10:26:28;13.02;;;7.00;;
32611;SDS011;19030;49.478;8.986;2022-11-14T10:28:55;12.43;;;8.00;;
32611;SDS011;19030;49.478;8.986;2022-11-14T10:34:18;15.23;;;9.55;;
32611;SDS011;19030;49.478;8.986;2022-11-14T10:36:51;13.45;;;8.27;;
32611;SDS011;19030;49.478;8.986;2022-11-14T10:39:38;11.13;;;6.63;;
32611;SDS011;19030;49.478;8.986;2022-11-14T10:42:07;12.30;;;7.05;;
32611;SDS011;19030;49.478;8.986;2022-11-14T10:44:34;14.75;;;7.47;;
32611;SDS011;19030;49.478;8.986;2022-11-14T10:47:01;12.02;;;6.82;;
32611;SDS011;19030;49.478;8.986;2022-11-14T10:49:24;11.68;;;5.93;;
32611;SDS011;19030;49.478;8.986;2022-11-14T10:51:54;13.38;;;7.10;;
32611;SDS011;19030;49.478;8.986;2022-11-14T10:54:25;10.55;;;6.50;;
32611;SDS011;19030;49.478;8.986;2022-11-14T10:56:51;10.35;;;6.15;;
32611;SDS011;19030;49.478;8.986;2022-11-14T10:59:11;11.77;;;7.15;;
32611;SDS011;19030;49.478;8.986;2022-11-14T11:01:38;11.82;;;6.38;;
32611;SDS011;19030;49.478;8.986;2022-11-14T11:06:32;11.60;;;6.30;;
32611;SDS011;19030;49.478;8.986;2022-11-14T11:08:51;11.27;;;7.00;;
32611;SDS011;19030;49.478;8.986;2022-11-14T11:11:29;11.25;;;6.18;;
32611;SDS011;19030;49.478;8.986;2022-11-14T11:13:52;10.15;;;5.65;;
32611;SDS011;19030;49.478;8.986;2022-11-14T11:16:13;11.45;;;6.45;;
32611;SDS011;19030;49.478;8.986;2022-11-14T11:18:33;10.77;;;6.47;;
32611;SDS011;19030;49.478;8.986;2022-11-14T11:21:04;10.60;;;6.05;;
32611;SDS011;19030;49.478;8.986;2022-11-14T11:23:28;10.50;;;5.63;;
32611;SDS011;19030;49.478;8.986;2022-11-14T11:25:50;9.63;;;5.38;;
32611;SDS011;19030;49.478;8.986;2022-11-14T11:28:25;10.32;;;5.72;;
32611;SDS011;19030;49.478;8.986;2022-11-14T11:30:55;10.07;;;5.25;;
32611;SDS011;19030;49.478;8.986;2022-11-14T11:35:37;10.50;;;5.18;;
32611;SDS011;19030;49.478;8.986;2022-11-14T11:37:59;10.65;;;5.80;;
32611;SDS011;19030;49.478;8.986;2022-11-14T11:40:24;12.48;;;7.03;;
32611;SDS011;19030;49.478;8.986;2022-11-14T11:42:48;11.90;;;5.63;;
32611;SDS011;19030;49.478;8.986;2022-11-14T11:45:15;13.30;;;6.43;;
32611;SDS011;19030;49.478;8.986;2022-11-14T11:47:36;9.27;;;5.13;;
32611;SDS011;19030;49.478;8.986;2022-11-14T11:49:55;13.38;;;8.05;;
32611;SDS011;19030;49.478;8.986;2022-11-14T11:52:17;11.10;;;5.53;;
32611;SDS011;19030;49.478;8.986;2022-11-14T11:55:02;9.00;;;5.10;;
32611;SDS011;19030;49.478;8.986;2022-11-14T11:57:24;10.48;;;4.50;;
32611;SDS011;19030;49.478;8.986;2022-11-14T11:59:49;12.27;;;6.95;;
32611;SDS011;19030;49.478;8.986;2022-11-14T12:04:36;11.30;;;7.47;;
32611;SDS011;19030;49.478;8.986;2022-11-14T12:07:18;12.23;;;5.20;;
32611;SDS011;19030;49.478;8.986;2022-11-14T12:09:39;8.32;;;5.43;;
32611;SDS011;19030;49.478;8.986;2022-11-14T12:12:03;10.73;;;4.90;;
32611;SDS011;19030;49.478;8.986;2022-11-14T12:14:53;8.50;;;4.78;;
32611;SDS011;19030;49.478;8.986;2022-11-14T12:17:52;9.68;;;4.97;;
32611;SDS011;19030;49.478;8.986;2022-11-14T12:20:32;8.10;;;4.60;;
32611;SDS011;19030;49.478;8.986;2022-11-14T12:31:12;11.25;;;6.10;;
32611;SDS011;19030;49.478;8.986;2022-11-14T12:33:35;13.00;;;5.68;;
32611;SDS011;19030;49.478;8.986;2022-11-14T12:36:01;7.95;;;5.13;;
32611;SDS011;19030;49.478;8.986;2022-11-14T12:38:23;9.73;;;4.78;;
32611;SDS011;19030;49.478;8.986;2022-11-14T12:40:48;10.63;;;5.13;;
32611;SDS011;19030;49.478;8.986;2022-11-14T12:43:24;10.48;;;4.47;;
32611;SDS011;19030;49.478;8.986;2022-11-14T12:48:14;10.15;;;5.18;;
32611;SDS011;19030;49.478;8.986;2022-11-14T12:50:42;12.40;;;5.13;;
32611;SDS011;19030;49.478;8.986;2022-11-14T12:53:01;8.52;;;4.35;;
32611;SDS011;19030;49.478;8.986;2022-11-14T13:00:17;25.10;;;12.80;;
32611;SDS011;19030;49.478;8.986;2022-11-14T13:02:47;14.60;;;7.97;;
32611;SDS011;19030;49.478;8.986;2022-11-14T13:05:13;10.13;;;4.70;;
32611;SDS011;19030;49.478;8.986;2022-11-14T13:10:37;8.40;;;4.15;;
32611;SDS011;19030;49.478;8.986;2022-11-14T13:13:04;9.48;;;4.60;;
32611;SDS011;19030;49.478;8.986;2022-11-14T13:18:33;12.88;;;7.55;;
32611;SDS011;19030;49.478;8.986;2022-11-14T13:23:57;9.35;;;4.45;;
32611;SDS011;19030;49.478;8.986;2022-11-14T13:33:44;8.35;;;4.43;;
32611;SDS011;19030;49.478;8.986;2022-11-14T13:36:25;6.03;;;3.25;;
32611;SDS011;19030;49.478;8.986;2022-11-14T13:39:01;7.65;;;4.20;;
32611;SDS011;19030;49.478;8.986;2022-11-14T13:44:35;9.15;;;4.25;;
32611;SDS011;19030;49.478;8.986;2022-11-14T13:50:23;7.03;;;3.38;;
32611;SDS011;19030;49.478;8.986;2022-11-14T13:52:47;6.90;;;3.45;;
32611;SDS011;19030;49.478;8.986;2022-11-14T13:55:06;8.60;;;3.92;;
32611;SDS011;19030;49.478;8.986;2022-11-14T13:57:54;6.78;;;3.80;;
32611;SDS011;19030;49.478;8.986;2022-11-14T14:00:25;5.28;;;3.10;;
32611;SDS011;19030;49.478;8.986;2022-11-14T14:02:59;6.82;;;3.33;;
32611;SDS011;19030;49.478;8.986;2022-11-14T14:16:33;5.57;;;3.20;;
32611;SDS011;19030;49.478;8.986;2022-11-14T14:19:07;6.20;;;3.45;;
32611;SDS011;19030;49.478;8.986;2022-11-14T14:21:38;7.57;;;3.22;;
32611;SDS011;19030;49.478;8.986;2022-11-14T14:31:47;9.68;;;4.03;;
32611;SDS011;19030;49.478;8.986;2022-11-14T14:36:52;6.85;;;3.85;;
32611;SDS011;19030;49.478;8.986;2022-11-14T14:39:18;7.13;;;3.67;;
32611;SDS011;19030;49.478;8.986;2022-11-14T14:41:43;20.85;;;5.50;;
32611;SDS011;19030;49.478;8.986;2022-11-14T14:44:02;7.38;;;3.10;;
32611;SDS011;19030;49.478;8.986;2022-11-14T14:46:28;7.28;;;3.45;;
32611;SDS011;19030;49.478;8.986;2022-11-14T14:48:49;7.32;;;3.90;;
32611;SDS011;19030;49.478;8.986;2022-11-14T14:51:11;6.00;;;3.17;;
32611;SDS011;19030;49.478;8.986;2022-11-14T14:53:32;5.55;;;3.40;;
32611;SDS011;19030;49.478;8.986;2022-11-14T14:55:54;9.50;;;4.55;;
32611;SDS011;19030;49.478;8.986;2022-11-14T15:00:49;10.50;;;3.70;;
32611;SDS011;19030;49.478;8.986;2022-11-14T15:03:11;5.57;;;3.38;;
32611;SDS011;19030;49.478;8.986;2022-11-14T15:05:30;42.22;;;19.50;;
32611;SDS011;19030;49.478;8.986;2022-11-14T15:07:50;21.08;;;11.52;;
32611;SDS011;19030;49.478;8.986;2022-11-14T15:10:17;17.98;;;9.95;;
32611;SDS011;19030;49.478;8.986;2022-11-14T15:12:39;11.40;;;5.50;;
32611;SDS011;19030;49.478;8.986;2022-11-14T15:15:00;8.65;;;4.38;;
32611;SDS011;19030;49.478;8.986;2022-11-14T15:17:23;7.32;;;3.63;;
32611;SDS011;19030;49.478;8.986;2022-11-14T15:19:43;5.85;;;3.30;;
32611;SDS011;19030;49.478;8.986;2022-11-14T15:22:18;10.45;;;3.63;;
32611;SDS011;19030;49.478;8.986;2022-11-14T15:24:41;7.28;;;3.90;;
32611;SDS011;19030;49.478;8.986;2022-11-14T15:27:02;6.90;;;3.50;;
32611;SDS011;19030;49.478;8.986;2022-11-14T15:29:32;7.32;;;4.05;;